createdAt,value
2022-08-06T00:02:11.645Z,99.90
2022-08-06T00:04:39.622Z,99.90
2022-08-06T00:07:10.200Z,99.90
2022-08-06T00:09:52.067Z,99.90
2022-08-06T00:12:28.325Z,99.90
2022-08-06T00:14:58.494Z,99.90
2022-08-06T00:17:30.232Z,99.90
2022-08-06T00:20:00.616Z,99.90
2022-08-06T00:22:29.702Z,99.90
2022-08-06T00:24:58.292Z,99.90
2022-08-06T00:27:28.708Z,99.90
2022-08-06T00:29:57.611Z,99.90
2022-08-06T00:32:33.921Z,99.90
2022-08-06T00:35:02.393Z,99.90
2022-08-06T00:37:57.201Z,99.90
2022-08-06T00:40:24.191Z,99.90
2022-08-06T00:42:54.342Z,99.90
2022-08-06T00:45:23.933Z,99.90
2022-08-06T00:48:03.295Z,99.90
2022-08-06T00:50:35.600Z,99.90
2022-08-06T00:53:05.594Z,99.90
2022-08-06T00:55:36.334Z,99.90
2022-08-06T00:58:05.576Z,99.90
2022-08-06T01:00:38.449Z,99.90
2022-08-06T01:03:06.569Z,99.90
2022-08-06T01:06:52.910Z,99.90
2022-08-06T01:08:21.651Z,99.90
2022-08-06T01:10:51.994Z,99.90
2022-08-06T01:13:25.405Z,99.90
2022-08-06T01:16:29.554Z,99.90
2022-08-06T01:19:21.160Z,99.90
2022-08-06T01:22:40.547Z,99.90
2022-08-06T01:25:46.303Z,99.90
2022-08-06T01:28:23.062Z,99.90
2022-08-06T01:31:16.767Z,99.90
2022-08-06T01:34:10.113Z,99.90
2022-08-06T01:36:48.232Z,99.90
2022-08-06T01:39:21.520Z,99.90
2022-08-06T01:42:10.360Z,99.90
2022-08-06T01:44:45.219Z,99.90
2022-08-06T01:47:22.016Z,99.90
2022-08-06T01:50:00.740Z,99.90
2022-08-06T01:52:40.887Z,99.90
2022-08-06T01:55:13.803Z,99.90
2022-08-06T01:58:08.557Z,99.90
2022-08-06T02:00:36.305Z,99.90
2022-08-06T02:03:10.591Z,99.90
2022-08-06T02:05:44.489Z,99.90
2022-08-06T02:08:39.171Z,99.90
2022-08-06T02:12:02.031Z,99.90
2022-08-06T02:13:53.363Z,99.90
2022-08-06T02:16:23.591Z,99.90
2022-08-06T02:18:56.452Z,99.90
2022-08-06T02:21:32.815Z,99.90
2022-08-06T02:24:03.667Z,99.90
2022-08-06T02:26:32.845Z,99.90
2022-08-06T02:29:04.891Z,99.90
2022-08-06T02:31:38.661Z,99.90
2022-08-06T02:34:18.424Z,99.90
2022-08-06T02:37:04.037Z,99.90
2022-08-06T02:39:51.868Z,99.90
2022-08-06T02:42:49.316Z,99.90
2022-08-06T02:45:37.969Z,99.90
2022-08-06T02:48:32.935Z,99.90
2022-08-06T02:51:29.463Z,99.90
2022-08-06T02:54:04.039Z,99.90
2022-08-06T02:56:42.220Z,99.90
2022-08-06T02:59:12.713Z,99.90
2022-08-06T03:01:45.056Z,99.90
2022-08-06T03:04:15.241Z,99.90
2022-08-06T03:06:47.263Z,99.90
2022-08-06T03:09:18.855Z,99.90
2022-08-06T03:11:47.774Z,99.90
2022-08-06T03:15:03.400Z,99.90
2022-08-06T03:17:07.823Z,99.90
2022-08-06T03:19:58.023Z,99.90
2022-08-06T03:22:36.008Z,99.90
2022-08-06T03:25:13.728Z,99.90
2022-08-06T03:27:44.761Z,99.90
2022-08-06T03:30:32.970Z,99.90
2022-08-06T03:33:07.457Z,99.90
2022-08-06T03:35:54.518Z,99.90
2022-08-06T03:38:28.319Z,99.90
2022-08-06T03:41:00.730Z,99.90
2022-08-06T03:43:45.961Z,99.90
2022-08-06T03:46:28.448Z,99.90
2022-08-06T03:48:58.960Z,99.90
2022-08-06T03:51:48.936Z,99.90
2022-08-06T03:54:28.255Z,99.90
2022-08-06T03:57:01.487Z,99.90
2022-08-06T03:59:44.039Z,99.90
2022-08-06T04:02:45.082Z,99.90
2022-08-06T04:05:25.653Z,99.90
2022-08-06T04:07:57.035Z,99.90
2022-08-06T04:10:34.272Z,99.90
2022-08-06T04:14:03.473Z,99.90
2022-08-06T04:15:57.579Z,99.90
2022-08-06T04:18:28.494Z,99.90
2022-08-06T04:21:20.850Z,99.90
2022-08-06T04:23:48.170Z,99.90
2022-08-06T04:26:23.259Z,99.90
2022-08-06T04:28:57.931Z,99.90
2022-08-06T04:32:11.275Z,99.90
2022-08-06T04:34:28.665Z,99.90
2022-08-06T04:36:59.302Z,99.90
2022-08-06T04:39:38.014Z,99.90
2022-08-06T04:42:18.421Z,99.90
2022-08-06T04:44:59.969Z,99.90
2022-08-06T04:47:41.563Z,99.90
2022-08-06T04:50:12.654Z,99.90
2022-08-06T04:52:47.902Z,99.90
2022-08-06T04:55:33.310Z,99.90
2022-08-06T04:58:11.586Z,99.90
2022-08-06T05:01:03.238Z,99.90
2022-08-06T05:04:07.335Z,99.90
2022-08-06T05:06:30.906Z,99.90
2022-08-06T05:09:04.036Z,99.90
2022-08-06T05:11:41.757Z,99.90
2022-08-06T05:15:01.309Z,99.90
2022-08-06T05:17:36.035Z,99.90
2022-08-06T05:20:26.315Z,99.90
2022-08-06T05:23:09.018Z,99.90
2022-08-06T05:25:54.302Z,99.90
2022-08-06T05:28:27.874Z,99.90
2022-08-06T05:30:57.084Z,99.90
2022-08-06T05:33:30.890Z,99.90
2022-08-06T05:36:04.775Z,99.90
2022-08-06T05:38:36.232Z,99.90
2022-08-06T05:41:10.853Z,99.90
2022-08-06T05:43:58.121Z,99.90
2022-08-06T05:46:33.659Z,99.90
2022-08-06T05:49:57.560Z,99.90
2022-08-06T05:52:22.558Z,99.90
2022-08-06T05:55:25.657Z,99.90
2022-08-06T05:58:11.306Z,99.90
2022-08-06T06:00:43.257Z,99.90
2022-08-06T06:03:24.539Z,99.90
2022-08-06T06:06:05.003Z,99.90
2022-08-06T06:08:57.174Z,99.90
2022-08-06T06:11:47.138Z,99.90
2022-08-06T06:14:39.484Z,99.90
2022-08-06T06:17:59.849Z,99.90
2022-08-06T06:21:03.279Z,99.90
2022-08-06T06:24:01.240Z,99.90
2022-08-06T06:26:38.560Z,98.90
2022-08-06T06:29:15.373Z,97.80
2022-08-06T06:32:06.481Z,97.30
2022-08-06T06:34:56.942Z,95.40
2022-08-06T06:37:47.772Z,95.00
2022-08-06T06:40:29.727Z,94.10
2022-08-06T06:43:02.874Z,93.20
2022-08-06T06:46:34.632Z,91.80
2022-08-06T06:48:42.607Z,91.20
2022-08-06T06:51:40.609Z,90.70
2022-08-06T06:54:22.783Z,90.50
2022-08-06T06:57:08.891Z,86.30
2022-08-06T07:00:01.662Z,85.20
2022-08-06T07:02:35.744Z,83.10
2022-08-06T07:05:05.503Z,81.80
2022-08-06T07:07:39.071Z,81.10
2022-08-06T07:10:11.504Z,80.10
2022-08-06T07:12:43.370Z,76.80
2022-08-06T07:15:16.916Z,78.30
2022-08-06T07:17:48.867Z,75.40
2022-08-06T07:20:28.500Z,74.30
2022-08-06T07:24:04.503Z,72.10
2022-08-06T07:25:54.469Z,72.10
2022-08-06T07:28:29.292Z,71.40
2022-08-06T07:31:00.193Z,72.30
2022-08-06T07:33:59.380Z,70.70
2022-08-06T07:36:26.724Z,68.00
2022-08-06T07:39:03.116Z,69.00
2022-08-06T07:41:31.366Z,68.60
2022-08-06T07:44:22.253Z,68.90
2022-08-06T07:46:55.539Z,68.00
2022-08-06T07:49:31.749Z,68.40
2022-08-06T07:52:18.013Z,70.50
2022-08-06T07:54:56.124Z,67.90
2022-08-06T07:57:25.353Z,65.10
2022-08-06T07:59:55.753Z,65.50
2022-08-06T08:02:29.542Z,65.70
2022-08-06T08:05:39.397Z,66.50
2022-08-06T08:08:09.359Z,62.80
2022-08-06T08:10:37.758Z,59.50
2022-08-06T08:13:13.424Z,58.40
2022-08-06T08:15:43.265Z,59.40
2022-08-06T08:18:11.121Z,61.50
2022-08-06T08:20:40.330Z,61.60
2022-08-06T08:23:25.404Z,64.30
2022-08-06T08:26:04.251Z,60.00
2022-08-06T08:28:32.616Z,59.60
2022-08-06T08:31:11.096Z,64.50
2022-08-06T08:33:48.484Z,67.00
2022-08-06T08:36:15.905Z,63.20
2022-08-06T08:38:44.156Z,64.70
2022-08-06T08:41:22.869Z,65.50
2022-08-06T08:44:06.529Z,64.60
2022-08-06T08:46:43.975Z,67.50
2022-08-06T08:49:52.064Z,75.00
2022-08-06T08:52:34.569Z,81.80
2022-08-06T08:57:08.355Z,86.00
2022-08-06T08:58:36.898Z,89.40
2022-08-06T09:00:52.715Z,91.30
2022-08-06T09:03:23.130Z,92.10
2022-08-06T09:05:53.188Z,94.30
2022-08-06T09:08:58.965Z,94.10
2022-08-06T09:11:11.996Z,95.60
2022-08-06T09:13:57.585Z,96.60
2022-08-06T09:16:31.584Z,96.10
2022-08-06T09:19:00.790Z,91.50
2022-08-06T09:21:29.203Z,82.90
2022-08-06T09:23:59.255Z,81.80
2022-08-06T09:26:54.789Z,86.40
2022-08-06T09:29:33.501Z,78.80
2022-08-06T09:32:15.646Z,72.10
2022-08-06T09:34:50.541Z,69.70
2022-08-06T09:37:30.247Z,63.40
2022-08-06T09:40:18.495Z,61.60
2022-08-06T09:42:51.914Z,59.80
2022-08-06T09:45:42.205Z,61.60
2022-08-06T09:48:16.919Z,62.90
2022-08-06T09:50:47.328Z,67.30
2022-08-06T09:53:18.922Z,73.70
2022-08-06T09:55:50.709Z,79.00
2022-08-06T09:58:37.487Z,84.70
2022-08-06T10:01:24.563Z,80.80
2022-08-06T10:04:02.554Z,80.40
2022-08-06T10:06:33.326Z,80.00
2022-08-06T10:09:41.642Z,81.70
2022-08-06T10:11:59.925Z,77.70
2022-08-06T10:14:29.202Z,75.20
2022-08-06T10:17:15.604Z,75.30
2022-08-06T10:20:09.880Z,79.30
2022-08-06T10:22:55.228Z,83.40
2022-08-06T10:25:30.049Z,88.20
2022-08-06T10:27:59.572Z,89.50
2022-08-06T10:30:35.712Z,82.20
2022-08-06T10:33:18.150Z,72.70
2022-08-06T10:35:54.211Z,65.40
2022-08-06T10:38:34.733Z,59.40
2022-08-06T10:41:27.774Z,56.60
2022-08-06T10:44:06.921Z,61.70
2022-08-06T10:46:35.827Z,66.70
2022-08-06T10:50:25.960Z,74.70
2022-08-06T10:51:58.623Z,80.10
2022-08-06T10:54:27.498Z,83.50
2022-08-06T10:56:56.055Z,86.50
2022-08-06T10:59:25.573Z,89.70
2022-08-06T11:02:34.552Z,87.70
2022-08-06T11:05:17.639Z,85.90
2022-08-06T11:08:09.280Z,83.80
2022-08-06T11:10:45.741Z,84.30
2022-08-06T11:13:22.506Z,84.00
2022-08-06T11:15:50.608Z,86.10
2022-08-06T11:18:21.773Z,87.00
2022-08-06T11:20:55.761Z,85.20
2022-08-06T11:23:57.954Z,87.00
2022-08-06T11:26:39.043Z,84.00
2022-08-06T11:29:15.437Z,86.80
2022-08-06T11:31:56.375Z,87.00
2022-08-06T11:34:51.499Z,86.00
2022-08-06T11:38:00.331Z,85.70
2022-08-06T11:40:54.061Z,84.10
2022-08-06T11:43:58.201Z,83.10
2022-08-06T11:46:43.364Z,79.00
2022-08-06T11:49:43.507Z,79.50
2022-08-06T11:52:44.874Z,78.30
2022-08-06T11:55:21.928Z,78.80
2022-08-06T11:57:51.827Z,83.70
2022-08-06T12:00:22.500Z,83.10
2022-08-06T12:02:56.015Z,79.70
2022-08-06T12:05:25.612Z,79.30
2022-08-06T12:08:38.595Z,82.40
2022-08-06T12:11:36.399Z,83.30
2022-08-06T12:14:33.741Z,83.50
2022-08-06T12:16:54.429Z,86.20
2022-08-06T12:19:26.088Z,87.60
2022-08-06T12:21:57.098Z,89.10
2022-08-06T12:24:45.290Z,89.00
2022-08-06T12:27:21.596Z,88.80
2022-08-06T12:29:59.970Z,86.10
2022-08-06T12:32:32.313Z,82.80
2022-08-06T12:35:03.429Z,81.00
2022-08-06T12:37:41.326Z,80.40
2022-08-06T12:40:34.570Z,79.80
2022-08-06T12:43:14.051Z,77.90
2022-08-06T12:46:05.131Z,74.50
2022-08-06T12:48:31.515Z,76.80
2022-08-06T12:51:11.472Z,76.80
2022-08-06T12:53:53.748Z,77.40
2022-08-06T12:56:33.279Z,78.60
2022-08-06T12:59:16.174Z,80.70
2022-08-06T13:02:06.920Z,81.20
2022-08-06T13:04:45.861Z,84.80
2022-08-06T13:07:15.466Z,83.50
2022-08-06T13:10:15.588Z,83.50
2022-08-06T13:14:03.405Z,78.80
2022-08-06T13:15:23.361Z,79.60
2022-08-06T13:18:41.093Z,79.70
2022-08-06T13:21:21.026Z,80.20
2022-08-06T13:23:53.146Z,82.40
2022-08-06T13:26:26.464Z,83.80
2022-08-06T13:30:33.728Z,82.70
2022-08-06T13:32:27.576Z,80.30
2022-08-06T13:35:11.452Z,80.00
2022-08-06T13:37:56.176Z,81.50
2022-08-06T13:41:03.217Z,82.60
2022-08-06T13:43:54.427Z,83.40
2022-08-06T13:46:33.008Z,79.90
2022-08-06T13:49:11.856Z,82.00
2022-08-06T13:51:48.919Z,80.50
2022-08-06T13:54:23.105Z,79.10
2022-08-06T13:56:52.072Z,78.50
2022-08-06T13:59:24.410Z,78.40
2022-08-06T14:02:08.054Z,78.80
2022-08-06T14:04:37.014Z,75.00
2022-08-06T14:07:05.387Z,79.90
2022-08-06T14:09:57.787Z,75.50
2022-08-06T14:12:20.660Z,78.90
2022-08-06T14:14:48.654Z,77.50
2022-08-06T14:17:19.912Z,78.80
2022-08-06T14:20:17.518Z,78.00
2022-08-06T14:22:38.713Z,77.00
2022-08-06T14:25:10.844Z,75.50
2022-08-06T14:27:43.681Z,76.40
2022-08-06T14:30:28.155Z,78.70
2022-08-06T14:33:09.882Z,76.50
2022-08-06T14:35:50.173Z,75.50
2022-08-06T14:38:18.419Z,76.70
2022-08-06T14:41:04.490Z,77.70
2022-08-06T14:43:56.551Z,78.60
2022-08-06T14:46:30.293Z,76.20
2022-08-06T14:49:00.396Z,77.90
2022-08-06T14:51:37.374Z,79.30
2022-08-06T14:54:18.366Z,77.40
2022-08-06T14:56:52.721Z,79.80
2022-08-06T14:59:26.174Z,81.20
2022-08-06T15:01:59.829Z,81.50
2022-08-06T15:04:27.359Z,82.20
2022-08-06T15:06:57.307Z,82.20
2022-08-06T15:10:03.796Z,84.30
2022-08-06T15:12:35.086Z,81.60
2022-08-06T15:15:06.385Z,81.40
2022-08-06T15:18:03.864Z,81.30
2022-08-06T15:20:25.002Z,80.70
2022-08-06T15:22:54.105Z,81.80
2022-08-06T15:26:00.388Z,82.80
2022-08-06T15:28:12.173Z,82.60
2022-08-06T15:30:39.611Z,84.00
2022-08-06T15:33:11.349Z,82.70
2022-08-06T15:35:53.180Z,83.20
2022-08-06T15:38:26.904Z,83.50
2022-08-06T15:40:55.558Z,83.40
2022-08-06T15:43:24.980Z,80.90
2022-08-06T15:45:55.253Z,83.80
2022-08-06T15:48:29.138Z,84.10
2022-08-06T15:51:27.061Z,86.80
2022-08-06T15:53:54.729Z,86.50
2022-08-06T15:56:33.718Z,85.90
2022-08-06T15:59:06.200Z,87.30
2022-08-06T16:01:52.582Z,89.00
2022-08-06T16:04:32.533Z,88.40
2022-08-06T16:07:07.298Z,89.50
2022-08-06T16:10:01.177Z,90.10
2022-08-06T16:12:23.937Z,90.10
2022-08-06T16:14:57.042Z,91.30
2022-08-06T16:17:52.687Z,92.20
2022-08-06T16:20:21.053Z,93.30
2022-08-06T16:22:52.361Z,93.00
2022-08-06T16:25:21.955Z,93.00
2022-08-06T16:27:51.992Z,93.00
2022-08-06T16:30:20.855Z,92.90
2022-08-06T16:32:49.329Z,93.30
2022-08-06T16:35:21.597Z,92.90
2022-08-06T16:37:52.041Z,93.10
2022-08-06T16:40:25.093Z,93.30
2022-08-06T16:42:54.231Z,92.80
2022-08-06T16:45:23.384Z,93.30
2022-08-06T16:48:03.676Z,91.80
2022-08-06T16:50:40.787Z,91.60
2022-08-06T16:54:08.322Z,91.80
2022-08-06T16:55:57.459Z,91.90
2022-08-06T16:58:33.254Z,91.70
2022-08-06T17:02:21.043Z,91.70
2022-08-06T17:03:49.262Z,91.20
2022-08-06T17:06:18.553Z,91.10
2022-08-06T17:08:54.848Z,91.40
2022-08-06T17:11:52.070Z,90.80
2022-08-06T17:14:13.384Z,91.00
2022-08-06T17:16:42.193Z,91.70
2022-08-06T17:19:16.340Z,91.00
2022-08-06T17:21:57.891Z,91.10
2022-08-06T17:24:37.081Z,91.70
2022-08-06T17:27:08.707Z,92.00
2022-08-06T17:29:45.747Z,91.50
2022-08-06T17:35:11.483Z,92.10
2022-08-06T17:37:42.989Z,92.20
2022-08-06T17:40:31.067Z,92.30
2022-08-06T17:43:05.051Z,92.90
2022-08-06T17:45:40.123Z,91.90
2022-08-06T17:48:24.848Z,91.70
2022-08-06T17:50:52.935Z,91.10
2022-08-06T17:53:21.678Z,91.80
2022-08-06T17:55:58.919Z,91.50
2022-08-06T17:58:37.709Z,91.80
2022-08-06T18:01:16.704Z,92.00
2022-08-06T18:03:49.359Z,92.50
2022-08-06T18:06:17.671Z,92.50
2022-08-06T18:08:50.508Z,92.40
2022-08-06T18:11:18.554Z,92.60
2022-08-06T18:13:53.100Z,93.20
2022-08-06T18:16:29.682Z,93.80
2022-08-06T18:18:57.518Z,94.60
2022-08-06T18:21:27.430Z,95.10
2022-08-06T18:23:56.874Z,95.60
2022-08-06T18:26:31.786Z,96.10
2022-08-06T18:29:06.062Z,96.60
2022-08-06T18:31:54.239Z,97.20
2022-08-06T18:34:29.448Z,96.80
2022-08-06T18:37:20.034Z,97.00
2022-08-06T18:40:17.716Z,97.20
2022-08-06T18:42:34.972Z,97.90
2022-08-06T18:45:04.543Z,98.30
2022-08-06T18:47:33.216Z,99.10
2022-08-06T18:50:01.538Z,99.40
2022-08-06T18:52:33.512Z,99.90
2022-08-06T18:55:04.351Z,99.90
2022-08-06T18:57:38.251Z,99.90
2022-08-06T19:00:23.880Z,99.90
2022-08-06T19:03:00.857Z,99.90
2022-08-06T19:05:29.682Z,99.90
2022-08-06T19:07:58.539Z,99.90
2022-08-06T19:10:28.855Z,99.90
2022-08-06T19:12:57.514Z,99.90
2022-08-06T19:15:45.934Z,99.90
2022-08-06T19:18:17.077Z,99.90
2022-08-06T19:20:45.663Z,99.90
2022-08-06T19:24:00.929Z,99.90
2022-08-06T19:26:12.532Z,99.90
2022-08-06T19:28:48.973Z,99.90
2022-08-06T19:31:23.385Z,99.90
2022-08-06T19:33:51.430Z,99.90
2022-08-06T19:36:31.295Z,99.90
2022-08-06T19:38:59.431Z,99.90
2022-08-06T19:42:00.624Z,99.90
2022-08-06T19:44:24.738Z,99.90
2022-08-06T19:47:00.574Z,99.90
2022-08-06T19:49:40.534Z,99.90
2022-08-06T19:52:09.946Z,99.90
2022-08-06T19:54:38.433Z,99.90
2022-08-06T19:57:13.043Z,99.90
2022-08-06T20:00:50.395Z,99.90
2022-08-06T20:02:29.470Z,99.90
2022-08-06T20:04:58.400Z,99.90
2022-08-06T20:07:27.508Z,99.90
2022-08-06T20:10:01.891Z,99.90
2022-08-06T20:12:34.913Z,99.90
2022-08-06T20:15:06.130Z,99.90
2022-08-06T20:17:46.231Z,99.90
2022-08-06T20:20:28.630Z,99.90
2022-08-06T20:23:08.637Z,99.90
2022-08-06T20:26:09.254Z,99.90
2022-08-06T20:29:07.897Z,99.90
2022-08-06T20:31:20.896Z,99.90
2022-08-06T20:33:59.334Z,99.90
2022-08-06T20:36:29.733Z,99.90
2022-08-06T20:38:57.885Z,99.90
2022-08-06T20:41:56.803Z,99.90
2022-08-06T20:44:14.196Z,99.90
2022-08-06T20:47:44.864Z,99.90
2022-08-06T20:50:03.839Z,99.90
2022-08-06T20:52:21.038Z,99.90
2022-08-06T20:54:52.433Z,99.90
2022-08-06T20:57:27.446Z,99.90
2022-08-06T20:59:57.774Z,99.90
2022-08-06T21:02:31.936Z,99.90
2022-08-06T21:05:14.455Z,99.90
2022-08-06T21:07:57.412Z,99.90
2022-08-06T21:10:30.296Z,99.90
2022-08-06T21:13:06.616Z,99.90
2022-08-06T21:15:54.764Z,99.90
2022-08-06T21:18:24.765Z,99.90
2022-08-06T21:20:53.621Z,99.90
2022-08-06T21:23:41.647Z,99.90
2022-08-06T21:26:11.358Z,99.90
2022-08-06T21:28:52.298Z,99.90
2022-08-06T21:31:24.202Z,99.90
2022-08-06T21:33:54.490Z,99.90
2022-08-06T21:36:26.159Z,99.90
2022-08-06T21:38:57.651Z,99.90
2022-08-06T21:41:54.824Z,99.90
2022-08-06T21:44:24.186Z,99.90
2022-08-06T21:46:57.920Z,99.90
2022-08-06T21:50:00.694Z,99.90
2022-08-06T21:52:28.475Z,99.90
2022-08-06T21:55:05.308Z,99.90
2022-08-06T21:57:45.362Z,99.90
2022-08-06T22:00:34.660Z,99.90
2022-08-06T22:03:07.261Z,99.90
2022-08-06T22:06:22.773Z,99.90
2022-08-06T22:08:39.092Z,99.90
2022-08-06T22:12:39.380Z,99.90
2022-08-06T22:14:07.623Z,99.90
2022-08-06T22:16:35.074Z,99.90
2022-08-06T22:19:02.616Z,99.90
2022-08-06T22:21:50.063Z,99.90
2022-08-06T22:24:20.422Z,99.90
2022-08-06T22:26:49.247Z,99.90
2022-08-06T22:29:27.189Z,99.90
2022-08-06T22:31:59.616Z,99.90
2022-08-06T22:34:36.570Z,99.90
2022-08-06T22:37:14.443Z,99.90
2022-08-06T22:39:44.665Z,99.90
2022-08-06T22:42:20.505Z,99.90
2022-08-06T22:45:47.524Z,99.90
2022-08-06T22:47:55.713Z,99.90
2022-08-06T22:50:24.055Z,99.90
2022-08-06T22:53:03.115Z,99.90
2022-08-06T22:55:41.186Z,99.90
2022-08-06T22:59:05.159Z,99.90
2022-08-06T23:00:58.185Z,99.90
2022-08-06T23:03:25.912Z,99.90
2022-08-06T23:05:54.834Z,99.90
2022-08-06T23:08:22.327Z,99.90
2022-08-06T23:10:59.158Z,99.90
2022-08-06T23:13:43.772Z,99.90
2022-08-06T23:16:15.215Z,99.90
2022-08-06T23:18:48.004Z,99.90
2022-08-06T23:21:50.225Z,99.90
2022-08-06T23:24:17.665Z,99.90
2022-08-06T23:26:45.012Z,99.90
2022-08-06T23:29:13.310Z,99.90
2022-08-06T23:31:42.928Z,99.90
2022-08-06T23:34:34.333Z,99.90
2022-08-06T23:36:58.249Z,99.90
2022-08-06T23:39:36.602Z,99.90
2022-08-06T23:42:14.583Z,99.90
2022-08-06T23:44:52.238Z,99.90
2022-08-06T23:47:53.913Z,99.90
2022-08-06T23:50:10.092Z,99.90
2022-08-06T23:52:41.886Z,99.90
2022-08-06T23:55:25.905Z,99.90
2022-08-06T23:57:57.534Z,99.90
